Time;durP1;ratioP1;P1;durP2;ratioP2;P2;SDS_P1;SDS_P2;PMS_P1;PMS_P2;Temp;Humidity;BMP_temperature;BMP_pressure;BME280_temperature;BME280_humidity;BME280_pressure;Samples;Min_cycle;Max_cycle;Signal;HPM_P1;HPM_P2
2023/12/25 00:00:36;;;;;;;;;4.50;4.00;;;;;14.00;77.98;101122.53;5080157;28;45600;-65
2023/12/25 00:03:01;;;;;;;;;4.75;3.50;;;;;14.08;77.70;101120.41;5080199;28;45397;-65
2023/12/25 00:05:26;;;;;;;;;6.25;3.50;;;;;14.26;77.89;101142.06;5080056;28;45335;-65
2023/12/25 00:07:52;;;;;;;;;5.25;5.00;;;;;14.23;78.04;101148.44;5079785;28;46039;-65
2023/12/25 00:10:17;;;;;;;;;5.25;3.00;;;;;14.17;77.84;101132.56;5079577;28;45555;-65
2023/12/25 00:12:43;;;;;;;;;6.00;3.00;;;;;14.19;78.16;101151.31;5079799;28;45424;-65
2023/12/25 00:15:09;;;;;;;;;7.00;3.75;;;;;14.01;78.23;101116.22;5061651;28;45524;-65
2023/12/25 00:17:34;;;;;;;;;7.00;4.25;;;;;14.06;77.88;101124.06;5061523;28;47073;-66
2023/12/25 00:20:00;;;;;;;;;5.50;4.00;;;;;14.15;78.02;101144.28;5079616;28;45434;-65
2023/12/25 00:22:25;;;;;;;;;5.00;3.75;;;;;13.98;77.97;101116.34;5079913;28;45369;-65
2023/12/25 00:24:50;;;;;;;;;3.75;3.00;;;;;14.07;78.19;101137.44;5079807;28;45425;-65
2023/12/25 00:27:16;;;;;;;;;7.00;3.75;;;;;14.07;78.08;101123.16;5079215;28;45620;-65
2023/12/25 00:29:41;;;;;;;;;3.00;3.00;;;;;14.06;78.13;101118.72;5079763;28;45358;-65
2023/12/25 00:32:06;;;;;;;;;4.50;3.00;;;;;13.93;78.04;101090.63;5079522;28;45279;-65
2023/12/25 00:34:32;;;;;;;;;3.75;3.75;;;;;13.94;78.32;101098.63;5079732;28;45346;-65
2023/12/25 00:36:57;;;;;;;;;4.50;3.00;;;;;14.03;78.23;101103.63;5079300;28;45457;-65
2023/12/25 00:39:22;;;;;;;;;8.75;4.50;;;;;13.98;78.26;101102.94;5079252;28;46613;-65
2023/12/25 00:41:47;;;;;;;;;4.25;2.25;;;;;14.00;78.13;101105.53;5079314;28;45333;-65
2023/12/25 00:44:13;;;;;;;;;5.25;4.50;;;;;14.07;78.13;101121.34;5079472;28;45272;-65
2023/12/25 00:46:38;;;;;;;;;4.00;3.00;;;;;14.01;78.17;101105.47;5079157;28;46349;-66
2023/12/25 00:49:03;;;;;;;;;6.25;3.00;;;;;14.12;78.37;101122.97;5079375;28;45287;-65
2023/12/25 00:51:29;;;;;;;;;4.00;3.00;;;;;14.20;78.32;101128.88;5060730;28;45304;-65
2023/12/25 00:53:54;;;;;;;;;4.25;3.00;;;;;14.05;78.36;101106.25;5079383;28;45322;-65
2023/12/25 00:56:19;;;;;;;;;3.00;1.50;;;;;14.09;78.61;101124.81;5078606;28;46156;-65
2023/12/25 00:58:45;;;;;;;;;2.25;2.25;;;;;14.06;78.65;101116.88;5079428;28;45546;-65
2023/12/25 01:01:10;;;;;;;;;6.00;3.00;;;;;14.08;78.52;101117.72;5079135;28;45362;-65
2023/12/25 01:03:36;;;;;;;;;10.50;4.00;;;;;14.24;78.24;101142.13;5060499;28;45531;-65
2023/12/25 01:06:03;;;;;;;;;5.25;3.00;;;;;14.14;78.55;101124.63;5078854;28;45522;-65
2023/12/25 01:08:28;;;;;;;;;6.25;3.50;;;;;14.12;78.53;101139.94;5060802;28;45835;-65
2023/12/25 01:10:54;;;;;;;;;3.00;2.50;;;;;14.23;78.68;101144.84;5078821;28;45576;-65
2023/12/25 01:13:19;;;;;;;;;6.25;4.00;;;;;14.25;78.51;101145.69;5079178;28;45433;-65
2023/12/25 01:15:45;;;;;;;;;4.25;3.50;;;;;14.18;78.74;101137.00;5078601;28;46542;-65
2023/12/25 01:18:10;;;;;;;;;4.00;3.00;;;;;14.26;78.58;101144.75;5060824;28;45342;-65
2023/12/25 01:20:35;;;;;;;;;4.00;4.00;;;;;14.16;78.81;101121.91;5060697;28;45389;-65
2023/12/25 01:23:01;;;;;;;;;0.50;0.00;;;;;14.24;78.71;101141.25;5080143;28;45644;-65
2023/12/25 01:25:26;;;;;;;;;5.25;3.00;;;;;14.06;78.86;101110.66;5082243;28;45342;-65
2023/12/25 01:27:52;;;;;;;;;3.00;3.00;;;;;14.15;78.92;101122.81;5082314;28;45302;-65
2023/12/25 01:30:17;;;;;;;;;4.50;3.00;;;;;14.23;79.20;101155.59;5082569;28;45332;-65
2023/12/25 01:32:42;;;;;;;;;4.75;2.25;;;;;14.02;78.98;101104.53;5082392;28;45429;-65
2023/12/25 01:35:08;;;;;;;;;4.50;4.25;;;;;14.02;79.08;101104.53;5082162;28;46789;-65
2023/12/25 01:37:34;;;;;;;;;6.00;3.00;;;;;14.12;79.29;101110.41;5081198;28;46147;-65
2023/12/25 01:39:59;;;;;;;;;4.50;3.50;;;;;14.09;79.49;101108.72;5082292;28;45490;-65
2023/12/25 01:42:24;;;;;;;;;5.75;3.75;;;;;14.03;79.09;101089.31;5082039;28;45540;-65
2023/12/25 01:44:50;;;;;;;;;5.00;2.50;;;;;14.09;79.48;101103.34;5082080;28;45497;-65
2023/12/25 01:47:18;;;;;;;;;3.75;3.25;;;;;14.26;79.60;101131.31;5082141;28;45323;-65
2023/12/25 01:49:44;;;;;;;;;3.00;3.00;;;;;14.17;79.92;101111.09;5063783;28;45576;-65
2023/12/25 01:52:11;;;;;;;;;5.25;3.00;;;;;14.09;79.68;101094.44;5082178;28;45478;-66
2023/12/25 01:54:38;;;;;;;;;2.50;2.50;;;;;14.24;79.70;101109.88;5081982;28;46416;-65
2023/12/25 01:57:04;;;;;;;;;4.25;3.25;;;;;14.23;79.32;101109.94;5063472;28;45367;-65
2023/12/25 01:59:30;;;;;;;;;5.00;4.00;;;;;14.02;79.70;101077.72;5082106;28;45359;-65
2023/12/25 02:01:57;;;;;;;;;4.50;4.00;;;;;14.00;79.64;101084.06;5081844;28;45448;-65
2023/12/25 02:04:23;;;;;;;;;3.75;2.25;;;;;13.98;79.83;101088.63;5081700;28;45519;-65
2023/12/25 02:06:51;;;;;;;;;2.75;2.75;;;;;14.03;79.59;101083.94;5080682;28;45446;-65
2023/12/25 02:09:17;;;;;;;;;2.00;2.00;;;;;14.22;79.70;101118.97;5081952;28;45417;-65
2023/12/25 02:11:43;;;;;;;;;2.75;2.75;;;;;13.90;79.71;101067.50;5081506;28;45362;-65
2023/12/25 02:14:10;;;;;;;;;7.00;4.00;;;;;14.15;79.70;101104.03;5063390;28;48312;-65
2023/12/25 02:16:37;;;;;;;;;3.50;3.50;;;;;14.08;79.77;101095.34;5063462;28;45276;-66
2023/12/25 02:19:05;;;;;;;;;4.25;4.00;;;;;14.12;79.92;101106.88;5063721;28;45465;-65
2023/12/25 02:21:31;;;;;;;;;5.00;2.75;;;;;14.13;80.05;101116.66;5081770;28;45313;-65
2023/12/25 02:23:59;;;;;;;;;4.00;2.50;;;;;14.00;79.67;101097.47;5081413;28;45330;-65
2023/12/25 02:26:24;;;;;;;;;4.25;2.00;;;;;14.14;79.94;101137.19;5081346;28;45526;-65
2023/12/25 02:28:50;;;;;;;;;3.25;2.00;;;;;14.24;80.18;101155.53;5081760;28;45595;-65
2023/12/25 02:31:17;;;;;;;;;7.25;3.50;;;;;14.07;80.26;101117.78;5081588;28;45248;-65
2023/12/25 02:33:42;;;;;;;;;5.00;2.50;;;;;14.07;80.08;101128.53;5081070;28;45411;-65
2023/12/25 02:36:08;;;;;;;;;4.75;3.25;;;;;14.21;80.12;101141.38;5081394;28;45720;-65
2023/12/25 02:38:33;;;;;;;;;5.00;2.50;;;;;14.11;80.34;101121.22;5081220;28;45439;-66
2023/12/25 02:40:58;;;;;;;;;4.00;2.75;;;;;13.90;80.33;101079.09;5081147;28;45497;-65
2023/12/25 02:43:24;;;;;;;;;3.25;2.00;;;;;13.97;80.21;101089.56;5081104;28;45531;-65
2023/12/25 02:45:49;;;;;;;;;3.25;2.00;;;;;13.96;80.32;101093.19;5081227;28;45429;-65
2023/12/25 02:48:14;;;;;;;;;5.75;3.00;;;;;14.14;80.26;101113.03;5062557;28;45434;-65
2023/12/25 02:50:40;;;;;;;;;4.25;2.50;;;;;14.07;80.26;101115.09;5081184;28;45374;-65
2023/12/25 02:53:05;;;;;;;;;4.00;4.00;;;;;14.02;80.03;101099.19;5080930;28;46465;-65
2023/12/25 02:55:31;;;;;;;;;4.00;4.00;;;;;14.03;80.40;101108.09;5062537;28;45422;-65
2023/12/25 02:57:56;;;;;;;;;4.00;3.00;;;;;14.21;80.17;101128.81;5081039;28;45281;-65
2023/12/25 03:00:22;;;;;;;;;2.00;2.00;;;;;14.02;80.11;101114.41;5081088;28;45367;-65
2023/12/25 03:02:47;;;;;;;;;5.50;3.75;;;;;14.26;80.32;101160.84;5080841;28;45345;-66
2023/12/25 03:05:12;;;;;;;;;2.00;1.00;;;;;14.00;80.35;101122.53;5081009;28;45391;-66
2023/12/25 03:07:38;;;;;;;;;2.75;1.50;;;;;14.04;80.57;101125.97;5081098;28;45363;-65
2023/12/25 03:10:04;;;;;;;;;2.00;2.00;;;;;14.07;80.65;101118.66;5081048;28;45318;-65
2023/12/25 03:12:29;;;;;;;;;6.25;3.75;;;;;14.09;80.94;101124.81;5080289;28;46076;-65
2023/12/25 03:14:54;;;;;;;;;6.25;4.75;;;;;14.01;80.63;101105.47;5080912;28;45299;-65
2023/12/25 03:17:20;;;;;;;;;3.75;2.50;;;;;13.97;80.81;101097.63;5080945;28;45520;-65
2023/12/25 03:19:45;;;;;;;;;3.50;3.00;;;;;13.94;80.71;101103.97;5080767;28;45254;-65
2023/12/25 03:22:10;;;;;;;;;2.25;2.00;;;;;14.01;80.94;101109.97;5080521;28;46189;-65
2023/12/25 03:24:36;;;;;;;;;4.00;2.25;;;;;13.96;81.14;101102.09;5080651;28;45559;-65
2023/12/25 03:27:02;;;;;;;;;3.00;2.25;;;;;13.91;81.19;101098.72;5080413;28;45418;-65
2023/12/25 03:29:27;;;;;;;;;2.25;2.25;;;;;13.97;81.28;101106.53;5080601;28;45378;-65
2023/12/25 03:31:52;;;;;;;;;4.25;3.00;;;;;13.86;81.52;101084.63;5080325;28;45408;-65
2023/12/25 03:34:19;;;;;;;;;2.00;2.00;;;;;14.17;81.36;101142.44;5080672;28;45406;-65
2023/12/25 03:36:45;;;;;;;;;4.00;2.50;;;;;14.07;81.47;101129.38;5062206;28;45423;-65
2023/12/25 03:39:11;;;;;;;;;4.00;2.75;;;;;14.05;81.31;101123.22;5080414;28;45641;-65
2023/12/25 03:41:36;;;;;;;;;4.50;2.50;;;;;14.20;81.30;101136.94;5079972;28;45454;-65
2023/12/25 03:44:02;;;;;;;;;2.75;2.75;;;;;14.06;81.55;101111.53;5062168;28;45635;-65
2023/12/25 03:46:28;;;;;;;;;3.25;2.75;;;;;14.04;81.61;101105.34;5079567;28;45599;-65
2023/12/25 03:48:53;;;;;;;;;3.50;2.00;;;;;14.03;81.52;101109.00;5080502;28;45260;-65
2023/12/25 03:51:18;;;;;;;;;4.00;1.00;;;;;14.23;81.32;101132.31;5080054;28;45558;-65
2023/12/25 03:53:44;;;;;;;;;3.00;2.00;;;;;14.02;81.39;101095.63;5080341;28;45275;-65
2023/12/25 03:56:09;;;;;;;;;2.00;2.00;;;;;14.24;81.69;101122.44;5079728;28;45247;-65
2023/12/25 03:58:35;;;;;;;;;2.75;1.75;;;;;14.12;81.93;101105.03;5080301;28;45255;-65
2023/12/25 04:01:00;;;;;;;;;2.50;1.50;;;;;14.09;81.74;101089.94;5079894;28;46044;-65
2023/12/25 04:03:26;;;;;;;;;3.00;2.00;;;;;14.00;81.63;101079.59;5080262;28;45616;-65
2023/12/25 04:05:51;;;;;;;;;3.00;1.00;;;;;14.04;81.49;101091.06;5079942;28;45392;-65
2023/12/25 04:08:17;;;;;;;;;3.00;2.75;;;;;14.05;81.97;101099.06;5080121;28;45565;-65
2023/12/25 04:10:42;;;;;;;;;3.25;1.00;;;;;13.90;81.97;101079.09;5074191;28;47670;-65
2023/12/25 04:13:07;;;;;;;;;1.00;1.00;;;;;13.92;81.90;101089.75;5069913;28;45380;-66
2023/12/25 04:15:33;;;;;;;;;3.00;1.50;;;;;13.95;81.77;101091.44;5079706;28;45406;-65
2023/12/25 04:17:58;;;;;;;;;3.25;2.00;;;;;14.13;81.72;101128.25;5061556;28;45526;-65
2023/12/25 04:20:23;;;;;;;;;4.75;1.00;;;;;13.97;82.00;101081.53;5079532;28;45498;-65
2023/12/25 04:22:49;;;;;;;;;1.00;1.00;;;;;13.92;81.97;101065.59;5079954;28;45601;-65
2023/12/25 04:25:14;;;;;;;;;3.00;2.00;;;;;14.04;82.00;101083.00;5079529;28;45610;-65
2023/12/25 04:27:40;;;;;;;;;8.25;2.00;;;;;14.04;82.05;101072.28;5079646;28;45378;-65
2023/12/25 04:30:06;;;;;;;;;2.00;1.00;;;;;14.14;81.85;101070.09;5079403;28;45481;-66
2023/12/25 04:32:31;;;;;;;;;1.00;1.00;;;;;14.09;82.00;101067.59;5061467;28;45358;-66
2023/12/25 04:34:56;;;;;;;;;3.25;1.75;;;;;13.99;82.03;101055.50;5079626;28;45702;-66
2023/12/25 04:37:22;;;;;;;;;2.00;2.00;;;;;14.18;81.80;101088.69;5079465;28;45366;-66
2023/12/25 04:39:47;;;;;;;;;3.25;2.00;;;;;14.20;82.14;101088.59;5079298;28;45561;-65
2023/12/25 04:42:13;;;;;;;;;2.00;2.00;;;;;14.05;82.00;101072.22;5076896;28;45447;-65
2023/12/25 04:44:38;;;;;;;;;2.50;1.50;;;;;14.12;82.33;101078.19;5060650;28;45335;-65
2023/12/25 04:47:04;;;;;;;;;1.00;1.00;;;;;14.09;82.27;101068.44;5079479;28;45466;-65
2023/12/25 04:49:31;;;;;;;;;1.75;1.75;;;;;14.14;82.34;101083.50;5079152;28;46366;-65
2023/12/25 04:51:57;;;;;;;;;2.00;1.00;;;;;13.99;82.21;101072.47;5079419;28;45805;-65
2023/12/25 04:54:22;;;;;;;;;1.00;1.00;;;;;13.98;82.49;101076.09;5079450;28;45525;-65
2023/12/25 04:56:48;;;;;;;;;0.00;0.00;;;;;14.19;82.70;101101.16;5060087;28;45615;-65
2023/12/25 04:59:13;;;;;;;;;5.00;1.00;;;;;14.15;82.23;101088.81;5078431;28;45394;-65
2023/12/25 05:01:39;;;;;;;;;2.00;0.75;;;;;14.10;82.15;101077.41;5079136;28;45550;-65
2023/12/25 05:04:05;;;;;;;;;2.00;1.00;;;;;14.24;82.25;101103.66;5061089;28;45510;-65
2023/12/25 05:06:30;;;;;;;;;3.25;2.00;;;;;14.04;82.45;101073.13;5079266;28;45499;-65
2023/12/25 05:08:56;;;;;;;;;1.25;1.00;;;;;13.98;82.22;101069.84;5079084;28;46103;-65
2023/12/25 05:11:23;;;;;;;;;2.00;1.00;;;;;14.06;82.52;101087.34;5060497;28;45310;-65
2023/12/25 05:13:49;;;;;;;;;1.50;1.50;;;;;13.92;82.24;101057.56;5079178;28;45482;-65
2023/12/25 05:16:14;;;;;;;;;0.00;0.00;;;;;14.09;82.42;101089.06;5079054;28;45583;-65
2023/12/25 05:18:40;;;;;;;;;2.00;0.00;;;;;14.05;82.73;101074.91;5078776;28;46471;-65
2023/12/25 05:21:08;;;;;;;;;1.00;1.00;;;;;13.95;82.80;101060.13;5079097;28;45260;-65
2023/12/25 05:23:33;;;;;;;;;0.00;0.00;;;;;14.11;82.48;101075.56;5079024;28;45422;-65
2023/12/25 05:25:58;;;;;;;;;0.25;0.00;;;;;13.97;82.17;101050.19;5078714;28;45445;-65
2023/12/25 05:28:24;;;;;;;;;2.00;0.00;;;;;14.03;82.49;101074.09;5078656;28;45582;-65
2023/12/25 05:30:49;;;;;;;;;0.00;0.00;;;;;13.99;82.22;101060.84;5060086;28;45457;-65
2023/12/25 05:33:14;;;;;;;;;5.00;0.00;;;;;13.95;82.62;101065.47;5060641;28;45545;-65
2023/12/25 05:35:40;;;;;;;;;0.00;0.00;;;;;13.95;82.50;101064.59;5078716;28;45519;-65
2023/12/25 05:38:05;;;;;;;;;0.00;0.00;;;;;14.11;82.48;101099.75;5060434;28;46920;-66
2023/12/25 05:40:30;;;;;;;;;2.50;0.00;;;;;14.06;82.63;101100.78;5078261;28;51851;-65
2023/12/25 05:42:56;;;;;;;;;0.00;0.00;;;;;13.90;82.44;101073.72;5060531;28;45495;-65
2023/12/25 05:45:23;;;;;;;;;1.25;0.00;;;;;13.81;82.46;101054.44;5078951;28;45504;-65
2023/12/25 05:47:48;;;;;;;;;2.00;1.00;;;;;14.09;82.52;101087.25;5059811;28;47116;-65
2023/12/25 05:50:14;;;;;;;;;1.00;1.00;;;;;14.00;82.61;101059.91;5078599;28;45261;-66
2023/12/25 05:52:39;;;;;;;;;0.00;0.00;;;;;13.98;82.73;101054.63;5060547;28;45376;-65
2023/12/25 05:55:06;;;;;;;;;0.00;0.00;;;;;13.85;82.54;101032.78;5078393;28;45455;-65
2023/12/25 05:57:31;;;;;;;;;0.50;0.00;;;;;13.92;82.59;101054.00;5078309;28;46172;-65
2023/12/25 05:59:57;;;;;;;;;0.00;0.00;;;;;13.94;82.30;101054.81;5060371;28;45546;-65
2023/12/25 06:02:22;;;;;;;;;3.00;0.00;;;;;13.94;82.55;101044.94;5078580;28;45355;-65
2023/12/25 06:04:47;;;;;;;;;0.00;0.00;;;;;13.95;82.56;101043.13;5078563;28;45888;-65
2023/12/25 06:07:13;;;;;;;;;0.00;0.00;;;;;13.96;82.11;101060.97;5078307;28;45555;-65
2023/12/25 06:09:38;;;;;;;;;0.25;0.00;;;;;14.11;82.84;101091.69;5080526;28;45568;-65
2023/12/25 06:12:04;;;;;;;;;0.00;0.00;;;;;14.15;82.29;101088.81;5063371;28;45452;-66
2023/12/25 06:14:29;;;;;;;;;0.00;0.00;;;;;13.89;82.48;101046.94;5081950;28;45505;-65
2023/12/25 06:16:55;;;;;;;;;0.00;0.00;;;;;13.89;82.53;101041.56;5063343;28;47016;-65
2023/12/25 06:19:20;;;;;;;;;0.00;0.00;;;;;14.11;82.60;101083.63;5081814;28;45386;-65
2023/12/25 06:21:45;;;;;;;;;0.00;0.00;;;;;14.04;82.68;101083.00;5081960;28;45456;-65
2023/12/25 06:24:11;;;;;;;;;0.25;0.00;;;;;14.02;82.71;101072.34;5081750;28;45561;-65
2023/12/25 06:26:36;;;;;;;;;0.00;0.00;;;;;14.01;82.75;101078.63;5063016;28;46068;-65
2023/12/25 06:29:02;;;;;;;;;0.00;0.00;;;;;13.95;82.57;101067.28;5081734;28;45398;-66
2023/12/25 06:31:27;;;;;;;;;1.00;0.00;;;;;14.05;82.75;101092.81;5081612;28;45534;-65
2023/12/25 06:33:53;;;;;;;;;0.00;0.00;;;;;14.03;83.14;101089.31;5063437;28;46084;-65
2023/12/25 06:36:18;;;;;;;;;0.00;0.00;;;;;13.89;83.24;101073.78;5062571;28;48018;-66
2023/12/25 06:38:43;;;;;;;;;0.00;0.00;;;;;13.66;83.16;101031.78;5063149;28;45243;-65
2023/12/25 06:41:12;;;;;;;;;0.00;0.00;;;;;13.99;83.11;101093.06;5081257;28;45339;-66
2023/12/25 06:43:37;;;;;;;;;0.00;0.00;;;;;13.93;83.06;101087.94;5063210;28;45463;-65
2023/12/25 06:46:03;;;;;;;;;0.00;0.00;;;;;13.92;83.28;101070.97;5081201;28;45422;-65
2023/12/25 06:48:29;;;;;;;;;1.00;1.00;;;;;14.01;83.07;101099.25;5081355;28;45353;-65
2023/12/25 06:50:54;;;;;;;;;1.00;0.00;;;;;13.97;83.16;101095.81;5081248;28;45437;-65
2023/12/25 06:53:20;;;;;;;;;2.00;0.00;;;;;14.03;83.28;101103.63;5081288;28;45386;-65
2023/12/25 06:55:45;;;;;;;;;0.00;0.00;;;;;14.02;83.34;101107.22;5062435;28;48124;-65
2023/12/25 06:58:10;;;;;;;;;0.00;0.00;;;;;14.06;83.18;101108.84;5081136;28;45366;-65
2023/12/25 07:00:36;;;;;;;;;0.00;0.00;;;;;14.14;83.46;101121.09;5081197;28;46022;-65
2023/12/25 07:03:01;;;;;;;;;0.00;0.00;;;;;14.13;83.44;101122.88;5080938;28;47139;-65
2023/12/25 07:05:27;;;;;;;;;0.00;0.00;;;;;13.99;83.88;101093.94;5080890;28;45419;-65
2023/12/25 07:07:52;;;;;;;;;0.00;0.00;;;;;14.07;83.42;101107.03;5080922;28;45260;-65
2023/12/25 07:10:18;;;;;;;;;0.00;0.00;;;;;13.92;83.28;101070.97;5078585;28;45693;-66
2023/12/25 07:12:43;;;;;;;;;0.00;0.00;;;;;13.99;83.23;101083.19;5062588;28;45568;-65
2023/12/25 07:15:09;;;;;;;;;0.00;0.00;;;;;14.13;82.93;101104.09;5062444;28;46198;-66
2023/12/25 07:17:34;;;;;;;;;0.00;0.00;;;;;14.19;83.07;101119.09;5078829;28;45345;-66
2023/12/25 07:20:00;;;;;;;;;0.00;0.00;;;;;13.96;83.22;101077.94;5080279;28;45557;-65
2023/12/25 07:22:27;;;;;;;;;0.00;0.00;;;;;14.20;83.14;101131.56;5062178;28;45405;-65
2023/12/25 07:24:52;;;;;;;;;0.00;0.00;;;;;14.07;83.38;101107.91;5062344;28;46792;-65
2023/12/25 07:27:17;;;;;;;;;0.00;0.00;;;;;13.98;83.12;101084.16;5062093;28;45367;-66
2023/12/25 07:29:43;;;;;;;;;0.00;0.00;;;;;13.95;83.37;101086.06;5072414;28;45443;-65
2023/12/25 07:32:08;;;;;;;;;0.00;0.00;;;;;14.17;83.37;101126.34;5080297;28;48053;-65
2023/12/25 07:34:34;;;;;;;;;0.75;0.25;;;;;14.16;83.40;101144.22;5062299;28;46917;-65
2023/12/25 07:37:01;;;;;;;;;0.00;0.00;;;;;14.15;83.01;101146.97;5079175;28;45394;-65
2023/12/25 07:39:27;;;;;;;;;0.50;0.00;;;;;14.04;83.32;101129.50;5080657;28;45538;-65
2023/12/25 07:41:55;;;;;;;;;0.00;0.00;;;;;13.99;83.45;101125.28;5080211;28;45395;-65
2023/12/25 07:44:20;;;;;;;;;0.00;0.00;;;;;13.92;83.21;101113.06;5080253;28;45445;-65
2023/12/25 07:46:46;;;;;;;;;1.00;0.00;;;;;14.15;83.10;101163.09;5080406;28;45316;-66
2023/12/25 07:49:11;;;;;;;;;0.50;0.00;;;;;13.92;83.16;101119.28;5079091;28;45356;-65
2023/12/25 07:51:36;;;;;;;;;0.00;0.00;;;;;14.06;83.22;101151.78;5062109;28;45662;-65
2023/12/25 07:54:02;;;;;;;;;0.00;0.00;;;;;13.92;83.24;101123.78;5078536;28;47067;-65
2023/12/25 07:56:27;;;;;;;;;0.00;0.00;;;;;13.90;83.24;101124.72;5079614;28;45439;-65
2023/12/25 07:58:52;;;;;;;;;0.00;0.00;;;;;14.06;83.35;101148.25;5080542;28;45338;-65
2023/12/25 08:01:22;;;;;;;;;0.00;0.00;;;;;14.06;83.18;101164.34;5080054;28;47243;-65
2023/12/25 08:03:49;;;;;;;;;0.75;0.00;;;;;13.86;83.34;101133.78;5080190;28;45643;-65
2023/12/25 08:06:14;;;;;;;;;1.00;0.00;;;;;13.87;83.23;101127.50;5080105;28;45314;-66
2023/12/25 08:08:40;;;;;;;;;1.00;0.00;;;;;14.04;83.33;101164.41;5080053;28;45536;-65
2023/12/25 08:11:05;;;;;;;;;0.00;0.00;;;;;13.86;83.35;101119.50;5079749;28;45543;-65
2023/12/25 08:13:30;;;;;;;;;0.00;0.00;;;;;13.94;83.08;101133.50;5061222;28;46665;-65
2023/12/25 08:15:56;;;;;;;;;0.00;0.00;;;;;13.82;82.88;101120.59;5078608;28;45285;-65
2023/12/25 08:18:21;;;;;;;;;0.00;0.00;;;;;13.70;83.53;101112.09;5080189;28;45295;-66
2023/12/25 08:20:47;;;;;;;;;0.00;0.00;;;;;13.86;83.32;101128.44;5079678;28;45398;-65
2023/12/25 08:23:12;;;;;;;;;0.00;0.00;;;;;13.82;83.11;101128.63;5061585;28;47961;-66
2023/12/25 08:25:38;;;;;;;;;0.00;0.00;;;;;13.98;83.19;101156.63;5079493;28;45375;-65
2023/12/25 08:28:04;;;;;;;;;0.00;0.00;;;;;13.98;83.30;101151.25;5061524;28;45429;-65
2023/12/25 08:30:29;;;;;;;;;1.50;0.25;;;;;13.78;83.28;101121.63;5061495;28;45579;-65
2023/12/25 08:32:54;;;;;;;;;0.00;0.00;;;;;13.82;82.96;101123.28;5077255;28;46735;-65
2023/12/25 08:35:20;;;;;;;;;0.00;0.00;;;;;14.00;83.26;101160.09;5078253;28;45295;-66
2023/12/25 08:37:45;;;;;;;;;0.00;0.00;;;;;13.95;83.11;101139.72;5079779;28;45483;-65
2023/12/25 08:40:10;;;;;;;;;0.00;0.00;;;;;14.12;83.16;101172.16;5079236;28;45433;-65
2023/12/25 08:42:36;;;;;;;;;2.00;0.00;;;;;14.05;83.16;101152.75;5078109;28;47225;-65
2023/12/25 08:45:02;;;;;;;;;0.00;0.00;;;;;14.07;82.86;101166.09;5079652;28;45413;-66
2023/12/25 08:47:28;;;;;;;;;0.00;0.00;;;;;13.95;82.98;101145.09;5079628;28;46501;-65
2023/12/25 08:49:53;;;;;;;;;0.25;0.00;;;;;14.13;82.91;101198.03;5061019;28;45565;-65
2023/12/25 08:52:20;;;;;;;;;0.00;0.00;;;;;13.90;82.58;101148.00;5079313;28;46441;-66
2023/12/25 08:54:45;;;;;;;;;0.75;0.00;;;;;14.05;82.57;101173.34;5079378;28;45248;-66
2023/12/25 08:57:11;;;;;;;;;0.00;0.00;;;;;14.09;82.57;101185.69;5079013;28;45501;-66
2023/12/25 08:59:36;;;;;;;;;0.00;0.00;;;;;13.77;82.63;101133.31;5079329;28;45406;-66
2023/12/25 09:02:02;;;;;;;;;0.00;0.00;;;;;13.89;82.26;101163.19;5079034;28;45409;-65
2023/12/25 09:04:28;;;;;;;;;0.00;0.00;;;;;13.97;82.34;101156.69;5077836;28;45784;-65
2023/12/25 09:06:53;;;;;;;;;0.00;0.00;;;;;14.00;82.09;101165.47;5079476;28;45475;-65
2023/12/25 09:09:19;;;;;;;;;1.00;0.00;;;;;13.99;81.70;101174.44;5079079;28;45381;-65
2023/12/25 09:11:46;;;;;;;;;1.50;0.00;;;;;13.96;81.98;101160.28;5078741;28;46080;-65
2023/12/25 09:14:12;;;;;;;;;0.00;0.00;;;;;14.14;82.25;101198.94;5079055;28;45335;-65
2023/12/25 09:16:37;;;;;;;;;0.00;0.00;;;;;14.14;82.25;101202.50;5079134;28;45311;-65
2023/12/25 09:19:03;;;;;;;;;0.00;0.00;;;;;14.03;82.49;101176.09;5060254;28;45580;-65
2023/12/25 09:21:28;;;;;;;;;0.25;0.00;;;;;14.09;82.64;101194.63;5078870;28;45265;-65
2023/12/25 09:23:54;;;;;;;;;0.00;0.00;;;;;13.99;82.48;101174.44;5078974;28;45306;-66
2023/12/25 09:26:20;;;;;;;;;0.00;0.00;;;;;14.00;82.42;101189.63;5078814;28;45252;-66
2023/12/25 09:28:46;;;;;;;;;0.00;0.00;;;;;13.83;82.44;101162.56;5078995;28;45260;-65
2023/12/25 09:31:12;;;;;;;;;0.00;0.00;;;;;13.89;82.53;101173.06;5078859;28;46502;-65
2023/12/25 09:33:37;;;;;;;;;0.50;0.00;;;;;13.89;82.93;101183.81;5070713;28;45505;-66
2023/12/25 09:36:03;;;;;;;;;0.00;0.00;;;;;13.85;82.75;101183.06;5071264;28;45363;-66
2023/12/25 09:38:29;;;;;;;;;0.25;0.00;;;;;13.89;83.12;101197.22;5060129;28;45530;-66
2023/12/25 09:40:55;;;;;;;;;0.00;0.00;;;;;13.96;82.83;101209.47;5078645;28;46651;-65
2023/12/25 09:43:21;;;;;;;;;0.00;0.00;;;;;14.10;83.19;101227.72;5078760;28;45375;-66
2023/12/25 09:45:48;;;;;;;;;0.00;0.00;;;;;13.97;83.05;101213.03;5082528;28;45456;-66
2023/12/25 09:48:14;;;;;;;;;0.00;0.00;;;;;13.83;83.27;101181.34;5082228;27;45505;-66
2023/12/25 09:50:40;;;;;;;;;0.75;0.00;;;;;13.96;83.32;101212.13;5062793;28;47949;-65
2023/12/25 09:53:06;;;;;;;;;0.00;0.00;;;;;14.08;83.63;101233.16;5082094;28;45524;-65
2023/12/25 09:55:31;;;;;;;;;0.00;0.00;;;;;13.98;83.52;101218.34;5082106;28;45326;-65
2023/12/25 09:58:03;;;;;;;;;0.50;0.00;;;;;13.90;84.00;101198.97;5081872;28;45443;-65
2023/12/25 10:00:29;;;;;;;;;0.00;0.00;;;;;14.07;84.24;101226.03;5082014;28;46754;-65
2023/12/25 10:02:57;;;;;;;;;0.00;0.00;;;;;13.94;84.56;101208.66;5081979;28;45514;-65
2023/12/25 10:05:22;;;;;;;;;0.00;0.00;;;;;14.06;84.87;101229.63;5082346;28;45418;-65
2023/12/25 10:07:48;;;;;;;;;7.00;7.00;;;;;13.93;85.16;101214.94;5081847;28;45404;-65
2023/12/25 10:10:13;;;;;;;;;1.00;0.00;;;;;13.90;85.39;101209.72;5081805;28;46488;-65
2023/12/25 10:12:44;;;;;;;;;2.75;0.00;;;;;14.12;85.48;101250.00;5081740;28;45410;-65
2023/12/25 10:15:09;;;;;;;;;2.00;0.00;;;;;13.94;85.40;101213.16;5081880;28;45394;-65
2023/12/25 10:17:35;;;;;;;;;0.00;0.00;;;;;13.86;86.10;101203.56;5081826;28;45569;-65
2023/12/25 10:20:00;;;;;;;;;0.00;0.00;;;;;13.84;86.07;101197.41;5081716;28;45415;-66
2023/12/25 10:22:40;;;;;;;;;0.00;0.00;;;;;14.11;85.99;101242.88;5081764;28;45317;-65
2023/12/25 10:25:07;;;;;;;;;1.00;1.00;;;;;13.95;86.57;101212.19;5081525;28;45370;-65
2023/12/25 10:27:41;;;;;;;;;0.50;0.50;;;;;13.99;86.33;101222.75;5081712;28;45411;-66
2023/12/25 10:30:17;;;;;;;;;0.00;0.00;;;;;13.92;86.56;101209.66;5081521;28;45518;-66
2023/12/25 10:32:43;;;;;;;;;0.00;0.00;;;;;13.89;86.88;101205.28;5081506;28;45330;-66
2023/12/25 10:35:14;;;;;;;;;0.00;0.00;;;;;14.04;86.53;101222.59;5081652;28;45303;-66
2023/12/25 10:37:41;;;;;;;;;1.00;1.00;;;;;13.94;86.17;101205.09;5081487;28;45490;-65
2023/12/25 10:40:20;;;;;;;;;0.00;0.00;;;;;14.08;86.55;101235.84;5075444;28;48285;-65
2023/12/25 10:42:54;;;;;;;;;0.75;0.75;;;;;14.01;86.59;101214.66;5059923;28;45543;-66
2023/12/25 10:45:22;;;;;;;;;2.00;1.00;;;;;13.97;86.73;101208.53;5058871;28;45397;-65
2023/12/25 10:47:52;;;;;;;;;0.00;0.00;;;;;14.00;86.60;101213.78;5059883;28;45407;-65
2023/12/25 10:50:25;;;;;;;;;1.00;1.00;;;;;14.11;86.51;101216.03;5059741;28;45341;-66
2023/12/25 10:52:50;;;;;;;;;0.00;0.00;;;;;13.90;87.30;101193.63;5059838;28;45937;-66
2023/12/25 10:55:38;;;;;;;;;0.00;0.00;;;;;13.89;86.92;101186.50;5059734;28;45523;-65
2023/12/25 10:58:08;;;;;;;;;1.00;0.00;;;;;13.99;86.77;101208.47;5058323;28;45509;-66
2023/12/25 11:00:49;;;;;;;;;0.25;0.25;;;;;14.00;86.68;101203.06;5059424;28;45611;-65
2023/12/25 11:03:15;;;;;;;;;0.00;0.00;;;;;14.05;86.90;101213.63;5059832;28;45494;-66
2023/12/25 11:05:41;;;;;;;;;0.25;0.25;;;;;14.01;86.96;101212.84;5059608;28;45247;-66
2023/12/25 11:08:08;;;;;;;;;3.00;0.00;;;;;13.84;87.11;101185.78;5059679;28;45856;-65
2023/12/25 11:10:35;;;;;;;;;1.50;1.00;;;;;13.67;87.34;101159.63;5071736;28;47888;-65
2023/12/25 11:13:01;;;;;;;;;1.00;1.00;;;;;13.90;87.55;101191.78;5048539;28;45406;-65
2023/12/25 11:15:26;;;;;;;;;2.00;1.00;;;;;13.76;87.34;101164.63;5074827;28;45497;-65
2023/12/25 11:17:52;;;;;;;;;2.75;0.50;;;;;13.74;87.85;101163.81;5059492;28;45384;-65